Sion, Switzerland
Current Conditions -  °F | °C
As of 1:50 PM on Saturday 20 Dec 2014 (Local Time) from LSMS Reporting Station
Scattered Clouds Scattered Clouds  
Wind Chill: 52°   Ceiling: Unl
Heat Index: 52°   Visibility: 6mi
Dew Point: 43°   Wind: 1mph
Humidity: 71%   Direction: NA
Pressure: 30.3"   Gusts: NA
Location:  46.25°N, 7.35°E
Report Text: LSMS 201250Z VRB01KT 9999 SCT010 SCT070 11/06 Q1026
Loading
Personal Weather Stations






























Interactive Weather Map New forecast layout! Learn more

10-Day Weather Forecast

Advertisements
Track Severe Weather on mobile